Time;durP1;ratioP1;P1;durP2;ratioP2;P2;SDS_P1;SDS_P2;PMS_P1;PMS_P2;Temp;Humidity;BMP_temperature;BMP_pressure;BME280_temperature;BME280_humidity;BME280_pressure;Samples;Min_cycle;Max_cycle;Signal;HPM_P1;HPM_P2
2022/04/05 00:00:55;;;;;;;7.43;2.83;;;7.70;99.90;;;;;;4996103;28;20107;-72
2022/04/05 00:03:21;;;;;;;7.25;2.95;;;7.70;99.90;;;;;;4999202;28;20060;-72
2022/04/05 00:05:47;;;;;;;5.65;2.78;;;7.70;99.90;;;;;;5002396;28;20052;-72
2022/04/05 00:08:12;;;;;;;7.63;3.05;;;7.70;99.90;;;;;;5002763;28;20050;-72
2022/04/05 00:10:38;;;;;;;5.65;2.70;;;7.70;99.90;;;;;;5000563;28;20087;-71
2022/04/05 00:13:07;;;;;;;9.05;3.20;;;7.70;99.90;;;;;;5004779;28;20095;-72
2022/04/05 00:15:34;;;;;;;7.55;2.95;;;7.60;99.90;;;;;;5004555;28;20038;-72
2022/04/05 00:18:00;;;;;;;10.52;4.05;;;7.60;99.90;;;;;;5006455;28;20046;-71
2022/04/05 00:20:29;;;;;;;8.57;3.13;;;7.60;99.90;;;;;;5005524;28;20078;-72
2022/04/05 00:22:55;;;;;;;7.93;2.75;;;7.60;99.90;;;;;;5005001;28;20545;-72
2022/04/05 00:25:21;;;;;;;7.47;2.88;;;7.60;99.90;;;;;;5006407;28;20045;-72
2022/04/05 00:27:47;;;;;;;10.77;3.22;;;7.60;99.90;;;;;;5008756;28;20054;-72
2022/04/05 00:30:15;;;;;;;5.80;3.00;;;7.60;99.90;;;;;;5011538;28;20533;-72
2022/04/05 00:32:41;;;;;;;7.50;2.83;;;7.60;99.90;;;;;;5027809;28;20132;-72
2022/04/05 00:35:08;;;;;;;7.57;3.03;;;7.60;99.90;;;;;;5007091;28;20082;-72
2022/04/05 00:37:34;;;;;;;8.07;2.80;;;7.60;99.90;;;;;;5010174;28;20121;-72
2022/04/05 00:40:00;;;;;;;6.35;3.00;;;7.60;99.90;;;;;;5009386;28;20085;-71
2022/04/05 00:42:26;;;;;;;6.07;2.40;;;7.50;99.90;;;;;;5009279;28;20120;-73
2022/04/05 00:44:51;;;;;;;5.28;2.70;;;7.50;99.90;;;;;;5010097;28;20532;-71
2022/04/05 00:47:19;;;;;;;6.03;3.13;;;7.50;99.90;;;;;;5019069;28;20055;-72
2022/04/05 00:49:45;;;;;;;;;;;7.50;99.90;;;;;;5012037;28;20132;-72
2022/04/05 00:52:16;;;;;;;7.85;2.60;;;7.50;99.90;;;;;;5029317;28;19925;-71
2022/04/05 00:54:44;;;;;;;4.25;2.17;;;7.50;99.90;;;;;;5015261;28;20045;-72
2022/04/05 00:57:15;;;;;;;3.97;2.08;;;7.50;99.90;;;;;;5006332;28;20541;-72
2022/04/05 00:59:43;;;;;;;3.85;2.13;;;7.50;99.90;;;;;;5008176;28;20042;-71
2022/04/05 01:02:14;;;;;;;6.38;2.20;;;7.50;99.90;;;;;;5008671;28;20392;-72
2022/04/05 01:04:42;;;;;;;6.38;2.00;;;7.50;99.90;;;;;;5008943;28;20042;-71
2022/04/05 01:07:10;;;;;;;6.18;1.92;;;7.50;99.90;;;;;;5009561;28;20121;-72
2022/04/05 01:09:37;;;;;;;7.28;2.10;;;7.40;99.90;;;;;;5012155;28;20056;-72
2022/04/05 01:12:08;;;;;;;5.40;1.70;;;7.40;99.90;;;;;;5012187;28;20544;-72
2022/04/05 01:14:34;;;;;;;6.20;1.90;;;7.40;99.90;;;;;;5009466;28;20722;-72
2022/04/05 01:17:00;;;;;;;7.03;2.67;;;7.40;99.90;;;;;;5008304;28;20042;-72
2022/04/05 01:19:27;;;;;;;4.22;1.85;;;7.40;99.90;;;;;;5007812;28;20081;-72
2022/04/05 01:21:52;;;;;;;4.13;1.40;;;7.40;99.90;;;;;;5010223;28;20068;-72
2022/04/05 01:24:18;;;;;;;3.50;1.48;;;7.40;99.90;;;;;;5010868;28;20100;-72
2022/04/05 01:26:45;;;;;;;4.78;1.60;;;7.40;99.90;;;;;;5025078;28;20044;-72
2022/04/05 01:29:12;;;;;;;4.50;1.88;;;7.40;99.90;;;;;;5008862;28;20547;-72
2022/04/05 01:31:38;;;;;;;3.67;1.30;;;7.30;99.90;;;;;;5007911;28;20234;-71
2022/04/05 01:34:04;;;;;;;4.80;1.40;;;7.30;99.90;;;;;;5007396;28;20300;-72
2022/04/05 01:36:30;;;;;;;3.72;1.40;;;7.30;99.90;;;;;;5007514;28;20489;-72
2022/04/05 01:38:56;;;;;;;4.40;1.90;;;7.30;99.90;;;;;;5025006;28;20036;-72
2022/04/05 01:41:21;;;;;;;5.05;1.40;;;7.30;99.90;;;;;;5018838;28;20091;-72
2022/04/05 01:43:47;;;;;;;6.50;1.95;;;7.30;99.90;;;;;;5008771;28;20510;-72
2022/04/05 01:46:12;;;;;;;6.97;1.95;;;7.30;99.90;;;;;;5005918;28;20401;-72
2022/04/05 01:48:39;;;;;;;5.10;1.63;;;7.30;99.90;;;;;;5009088;28;20142;-72
2022/04/05 01:51:06;;;;;;;5.60;1.60;;;7.20;99.90;;;;;;5008301;28;20425;-72
2022/04/05 01:53:31;;;;;;;5.33;1.73;;;7.20;99.90;;;;;;5009501;28;20057;-72
2022/04/05 01:55:57;;;;;;;5.85;2.03;;;7.20;99.90;;;;;;5008558;28;20037;-72
2022/04/05 01:58:24;;;;;;;5.80;1.60;;;7.20;99.90;;;;;;5019558;28;20049;-72
2022/04/05 02:00:50;;;;;;;2.38;1.50;;;7.20;99.90;;;;;;5028175;28;20073;-72
2022/04/05 02:03:16;;;;;;;7.00;1.80;;;7.20;99.90;;;;;;5007596;28;20046;-72
2022/04/05 02:05:43;;;;;;;5.68;1.75;;;7.20;99.90;;;;;;5008632;28;20046;-72
2022/04/05 02:08:09;;;;;;;5.75;1.77;;;7.20;99.90;;;;;;5007654;28;20042;-72
2022/04/05 02:10:35;;;;;;;4.90;1.60;;;7.20;99.90;;;;;;5007800;28;20064;-72
2022/04/05 02:13:00;;;;;;;7.38;1.83;;;7.20;99.90;;;;;;5009679;28;20129;-72
2022/04/05 02:15:27;;;;;;;4.50;1.75;;;7.20;99.90;;;;;;5022226;28;20037;-72
2022/04/05 02:17:52;;;;;;;4.60;1.80;;;7.20;99.90;;;;;;5022490;28;20049;-71
2022/04/05 02:23:59;;;;;;;5.60;1.80;;;7.20;99.90;;;;;;5020999;28;20037;-72
2022/04/05 02:26:27;;;;;;;4.53;2.05;;;7.10;99.90;;;;;;5026778;28;20049;-72
2022/04/05 02:28:53;;;;;;;5.47;1.95;;;7.10;99.90;;;;;;5015517;28;20626;-72
2022/04/05 02:31:19;;;;;;;6.03;1.88;;;7.10;99.90;;;;;;5008139;28;20121;-72
2022/04/05 02:33:45;;;;;;;2.70;1.90;;;7.10;99.90;;;;;;5011939;28;20102;-72
2022/04/05 02:36:11;;;;;;;4.93;1.95;;;7.10;99.90;;;;;;5007146;28;20401;-72
2022/04/05 02:38:36;;;;;;;4.50;1.85;;;7.10;99.90;;;;;;5007757;28;20058;-72
2022/04/05 02:41:05;;;;;;;3.00;1.75;;;7.10;99.90;;;;;;5007899;28;20030;-72
2022/04/05 02:43:32;;;;;;;7.00;2.83;;;7.10;99.90;;;;;;5013062;28;20049;-72
2022/04/05 02:45:58;;;;;;;4.83;1.80;;;7.10;99.90;;;;;;5018163;28;20155;-72
2022/04/05 02:48:24;;;;;;;5.57;1.88;;;7.10;99.90;;;;;;5015123;28;20408;-72
2022/04/05 02:50:50;;;;;;;5.28;1.88;;;7.10;99.90;;;;;;5007433;28;20049;-72
2022/04/05 02:53:16;;;;;;;7.00;1.83;;;7.10;99.90;;;;;;5010941;28;20034;-71
2022/04/05 02:55:42;;;;;;;5.43;1.83;;;7.10;99.90;;;;;;5020356;28;20397;-71
2022/04/05 02:58:08;;;;;;;4.95;1.77;;;7.10;99.90;;;;;;5025781;28;20396;-72
2022/04/05 03:00:35;;;;;;;5.82;1.90;;;7.10;99.90;;;;;;5010329;28;20163;-72
2022/04/05 03:03:01;;;;;;;5.13;2.00;;;7.10;99.90;;;;;;5008838;28;20058;-72
2022/04/05 03:05:26;;;;;;;7.40;2.10;;;7.10;99.90;;;;;;5021636;28;20465;-72
2022/04/05 03:07:52;;;;;;;4.97;1.80;;;7.10;99.90;;;;;;5027396;28;20054;-72
2022/04/05 03:10:18;;;;;;;7.47;1.98;;;7.10;99.90;;;;;;5012682;28;20397;-72
2022/04/05 03:12:43;;;;;;;4.30;1.63;;;7.10;99.90;;;;;;5008041;28;20044;-72
2022/04/05 03:15:10;;;;;;;5.97;1.70;;;7.10;99.90;;;;;;5011779;28;20170;-72
2022/04/05 03:17:41;;;;;;;4.78;2.10;;;7.10;99.90;;;;;;5015186;28;20064;-72
2022/04/05 03:20:07;;;;;;;4.65;1.67;;;7.00;99.90;;;;;;5007792;28;20061;-72
2022/04/05 03:22:33;;;;;;;5.88;1.90;;;7.00;99.90;;;;;;5007839;28;20056;-72
2022/04/05 03:24:59;;;;;;;6.35;1.77;;;7.00;99.90;;;;;;5024153;28;20149;-72
2022/04/05 03:27:24;;;;;;;5.70;2.03;;;7.00;99.90;;;;;;5023201;28;20078;-71
2022/04/05 03:29:51;;;;;;;4.45;1.60;;;7.00;99.90;;;;;;5008071;28;20087;-71
2022/04/05 03:32:16;;;;;;;6.47;1.75;;;7.10;99.90;;;;;;5006288;28;20091;-72
2022/04/05 03:34:42;;;;;;;6.47;2.10;;;7.10;99.90;;;;;;5008449;28;20034;-72
2022/04/05 03:37:07;;;;;;;6.40;2.10;;;7.10;99.90;;;;;;5014964;28;20473;-72
2022/04/05 03:39:33;;;;;;;4.53;1.60;;;7.10;99.90;;;;;;5006144;28;20049;-73
2022/04/05 03:41:59;;;;;;;4.78;1.80;;;7.10;99.90;;;;;;5005669;28;20049;-72
2022/04/05 03:44:26;;;;;;;4.93;1.80;;;7.10;99.90;;;;;;5019141;28;20080;-73
2022/04/05 03:46:52;;;;;;;3.28;1.70;;;7.10;99.90;;;;;;5006189;28;20489;-73
2022/04/05 03:49:21;;;;;;;6.82;2.20;;;7.10;99.90;;;;;;5005812;28;20458;-72
2022/04/05 03:51:46;;;;;;;8.45;2.65;;;7.10;99.90;;;;;;5006722;28;20046;-72
2022/04/05 03:54:12;;;;;;;6.53;2.38;;;7.10;99.90;;;;;;5006839;28;20079;-72
2022/04/05 03:56:38;;;;;;;9.05;2.40;;;7.10;99.90;;;;;;5005685;28;20115;-72
2022/04/05 03:59:04;;;;;;;6.57;2.20;;;7.00;99.90;;;;;;5005944;28;20050;-72
2022/04/05 04:01:30;;;;;;;6.38;2.53;;;7.00;99.90;;;;;;5005475;28;20037;-72
2022/04/05 04:03:55;;;;;;;6.32;2.53;;;7.00;99.90;;;;;;5010559;28;20049;-72
2022/04/05 04:06:21;;;;;;;7.18;2.83;;;7.00;99.90;;;;;;5006091;28;20050;-72
2022/04/05 04:08:47;;;;;;;7.85;2.63;;;7.00;99.90;;;;;;5013082;28;20056;-72
2022/04/05 04:11:13;;;;;;;8.32;3.33;;;7.00;99.90;;;;;;5024268;28;20065;-72
2022/04/05 04:13:39;;;;;;;7.00;3.03;;;7.00;99.90;;;;;;5009655;28;20077;-72
2022/04/05 04:16:05;;;;;;;6.78;3.33;;;7.00;99.90;;;;;;5005773;28;20523;-72
2022/04/05 04:18:30;;;;;;;8.95;3.70;;;7.10;99.90;;;;;;5008800;28;20520;-72
2022/04/05 04:20:56;;;;;;;10.25;3.40;;;7.10;99.90;;;;;;5009590;28;20390;-72
2022/04/05 04:23:22;;;;;;;9.50;4.13;;;7.10;99.90;;;;;;5006125;28;20038;-72
2022/04/05 04:25:47;;;;;;;9.63;4.18;;;7.10;99.90;;;;;;5006651;28;20034;-72
2022/04/05 04:28:13;;;;;;;9.85;3.72;;;7.10;99.90;;;;;;5005342;28;20182;-72
2022/04/05 04:30:39;;;;;;;10.82;4.30;;;7.10;99.90;;;;;;5006726;28;20408;-72
2022/04/05 04:33:05;;;;;;;10.95;3.97;;;7.10;99.90;;;;;;5006790;28;20046;-72
2022/04/05 04:35:31;;;;;;;7.70;3.80;;;7.10;99.90;;;;;;5005187;28;20048;-72
2022/04/05 04:37:57;;;;;;;11.18;4.22;;;7.10;99.90;;;;;;5006411;28;20046;-72
2022/04/05 04:40:23;;;;;;;11.07;4.38;;;7.10;99.90;;;;;;5004997;28;20050;-72
2022/04/05 04:42:49;;;;;;;12.23;4.95;;;7.10;99.90;;;;;;5004827;28;20556;-72
2022/04/05 04:45:14;;;;;;;9.68;4.50;;;7.10;99.90;;;;;;5005578;28;20353;-73
2022/04/05 04:47:40;;;;;;;13.23;4.60;;;7.10;99.90;;;;;;5005270;28;20397;-72
2022/04/05 04:50:08;;;;;;;9.35;4.30;;;7.10;99.90;;;;;;5008573;28;20046;-72
2022/04/05 04:52:34;;;;;;;10.70;4.53;;;7.10;99.90;;;;;;5004738;28;20054;-72
2022/04/05 04:55:00;;;;;;;11.35;4.43;;;7.10;99.90;;;;;;5016770;28;20363;-72
2022/04/05 04:57:26;;;;;;;9.43;4.82;;;7.10;99.90;;;;;;5005458;28;20574;-72
2022/04/05 04:59:52;;;;;;;12.25;5.25;;;7.00;99.90;;;;;;5006253;28;20049;-72
2022/04/05 05:02:18;;;;;;;14.30;5.45;;;7.00;99.90;;;;;;5007411;28;20046;-72
2022/04/05 05:04:44;;;;;;;9.75;5.50;;;7.00;99.90;;;;;;5005664;28;20046;-72
2022/04/05 05:07:09;;;;;;;11.75;5.40;;;7.00;99.90;;;;;;5005855;28;20042;-72
2022/04/05 05:09:35;;;;;;;12.68;6.15;;;7.10;99.90;;;;;;5005497;28;20053;-72
2022/04/05 05:12:01;;;;;;;14.20;6.15;;;7.10;99.90;;;;;;5007028;28;20434;-72
2022/04/05 05:14:27;;;;;;;15.65;6.25;;;7.10;99.90;;;;;;5007535;28;20121;-72
2022/04/05 05:16:56;;;;;;;12.63;5.93;;;7.00;99.90;;;;;;5008634;28;20078;-72
2022/04/05 05:19:21;;;;;;;12.50;5.82;;;7.10;99.90;;;;;;5008995;28;20053;-72
2022/04/05 05:21:48;;;;;;;10.75;6.40;;;7.10;99.90;;;;;;5012721;28;20041;-72
2022/04/05 05:24:13;;;;;;;15.07;6.75;;;7.10;99.90;;;;;;5014638;28;20049;-72
2022/04/05 05:26:39;;;;;;;11.93;6.20;;;7.10;99.90;;;;;;5010191;28;20038;-72
2022/04/05 05:29:05;;;;;;;11.38;5.70;;;7.10;99.90;;;;;;5006067;28;20057;-72
2022/04/05 05:31:31;;;;;;;11.90;5.47;;;7.10;99.90;;;;;;5014802;28;20125;-72
2022/04/05 05:33:56;;;;;;;14.18;6.22;;;7.10;99.90;;;;;;5009010;28;20191;-72
2022/04/05 05:36:22;;;;;;;12.25;5.70;;;7.10;99.90;;;;;;5008638;28;20045;-72
2022/04/05 05:38:48;;;;;;;11.35;6.20;;;7.10;99.90;;;;;;5008388;28;20050;-73
2022/04/05 05:41:13;;;;;;;15.18;6.38;;;7.10;99.90;;;;;;5007134;28;20053;-72
2022/04/05 05:43:40;;;;;;;12.27;6.20;;;7.00;99.90;;;;;;5007429;28;20045;-72
2022/04/05 05:46:06;;;;;;;12.05;6.10;;;7.10;99.90;;;;;;5014204;28;20419;-72
2022/04/05 05:48:33;;;;;;;12.07;6.20;;;7.10;99.90;;;;;;5006975;28;20053;-72
2022/04/05 05:50:59;;;;;;;11.60;6.17;;;7.10;99.90;;;;;;5110403;27;20510;-72
2022/04/05 05:53:25;;;;;;;11.60;6.05;;;7.10;99.90;;;;;;5005963;28;20061;-72
2022/04/05 05:55:51;;;;;;;13.20;6.63;;;7.10;99.90;;;;;;5008606;28;20034;-72
2022/04/05 05:58:17;;;;;;;11.73;6.43;;;7.20;99.90;;;;;;5020876;28;20125;-71
2022/04/05 06:00:43;;;;;;;16.17;6.85;;;7.20;99.90;;;;;;5020105;28;20050;-72
2022/04/05 06:03:10;;;;;;;11.57;7.18;;;7.20;99.90;;;;;;5007831;28;20121;-72
2022/04/05 06:05:38;;;;;;;14.15;7.22;;;7.20;99.90;;;;;;5007324;28;20046;-72
2022/04/05 06:08:05;;;;;;;15.85;6.22;;;7.20;99.90;;;;;;5007120;28;20077;-72
2022/04/05 06:10:31;;;;;;;12.80;6.00;;;7.30;99.90;;;;;;5013614;28;20037;-72
2022/04/05 06:12:57;;;;;;;14.02;6.13;;;7.30;99.90;;;;;;5007083;28;20507;-72
2022/04/05 06:15:25;;;;;;;12.77;6.65;;;7.30;99.90;;;;;;5006116;28;20057;-72
2022/04/05 06:17:51;;;;;;;;;;;7.30;99.90;;;;;;5007818;28;20603;-71
2022/04/05 06:20:21;;;;;;;14.85;7.13;;;7.30;99.90;;;;;;5008540;28;19921;-72
2022/04/05 06:23:07;;;;;;;12.32;6.05;;;7.30;99.90;;;;;;5009564;28;20127;-72
2022/04/05 06:25:35;;;;;;;16.88;6.95;;;7.40;99.90;;;;;;5026427;28;20046;-72
2022/04/05 06:28:06;;;;;;;12.35;6.32;;;7.40;99.90;;;;;;5005229;28;20447;-72
2022/04/05 06:30:34;;;;;;;14.00;6.43;;;7.40;99.90;;;;;;5006148;28;20041;-72
2022/04/05 06:33:12;;;;;;;13.70;6.35;;;7.50;99.90;;;;;;5007091;28;20443;-72
2022/04/05 06:35:39;;;;;;;9.95;6.18;;;7.50;99.90;;;;;;5002437;28;20049;-71
2022/04/05 06:38:05;;;;;;;12.60;6.50;;;7.50;99.90;;;;;;5008450;28;20095;-72
2022/04/05 06:40:31;;;;;;;11.65;5.47;;;7.50;99.90;;;;;;5009492;28;20045;-72
2022/04/05 06:42:56;;;;;;;12.85;6.20;;;7.50;99.90;;;;;;5020561;28;20158;-72
2022/04/05 06:45:25;;;;;;;15.45;7.00;;;7.50;99.90;;;;;;5006898;28;20058;-72
2022/04/05 06:47:52;;;;;;;12.85;5.15;;;7.50;99.90;;;;;;5006544;28;20464;-72
2022/04/05 06:50:24;;;;;;;9.13;4.85;;;7.50;99.90;;;;;;5006966;28;20038;-72
2022/04/05 06:52:55;;;;;;;9.52;4.72;;;7.50;99.90;;;;;;5007798;28;20052;-72
2022/04/05 06:55:21;;;;;;;12.02;4.75;;;7.50;99.90;;;;;;5016778;28;20052;-72
2022/04/05 06:57:47;;;;;;;10.07;4.38;;;7.50;99.90;;;;;;5007283;28;20042;-72
2022/04/05 07:00:13;;;;;;;12.25;4.63;;;7.60;99.90;;;;;;5005316;28;20053;-72
2022/04/05 07:02:40;;;;;;;11.60;4.30;;;7.60;99.90;;;;;;5008688;28;20501;-72
2022/04/05 07:05:07;;;;;;;9.02;3.65;;;7.70;99.90;;;;;;5006204;28;20077;-72
2022/04/05 07:07:33;;;;;;;10.68;3.90;;;7.70;99.90;;;;;;4988013;28;20042;-72
2022/04/05 07:09:59;;;;;;;8.32;4.10;;;7.70;99.90;;;;;;4986853;28;20159;-72
2022/04/05 07:12:24;;;;;;;7.88;3.83;;;7.70;99.90;;;;;;4998945;28;20132;-72
2022/04/05 07:14:51;;;;;;;7.50;3.53;;;7.80;99.90;;;;;;5005850;28;20440;-72
2022/04/05 07:17:17;;;;;;;8.68;3.10;;;7.80;99.90;;;;;;5004445;28;20465;-72
2022/04/05 07:19:42;;;;;;;12.07;3.70;;;7.80;99.90;;;;;;5007612;28;20049;-72
2022/04/05 07:22:08;;;;;;;7.40;2.63;;;7.80;99.90;;;;;;5005415;28;20115;-72
2022/04/05 07:24:34;;;;;;;9.80;2.90;;;7.80;99.90;;;;;;5008275;28;20057;-73
2022/04/05 07:26:59;;;;;;;8.45;2.83;;;7.80;99.90;;;;;;5005295;28;20154;-74
2022/04/05 07:29:25;;;;;;;9.85;3.40;;;7.90;99.90;;;;;;5006428;28;20046;-76
2022/04/05 07:31:50;;;;;;;9.23;3.10;;;7.90;99.90;;;;;;5004057;28;20042;-76
2022/04/05 07:34:16;;;;;;;7.88;3.13;;;7.90;99.90;;;;;;5012343;28;20049;-75
2022/04/05 07:36:42;;;;;;;6.63;3.17;;;8.00;99.90;;;;;;5006905;28;20374;-76
2022/04/05 07:39:07;;;;;;;7.93;2.70;;;8.00;99.90;;;;;;5006197;28;20073;-76
2022/04/05 07:41:33;;;;;;;5.85;2.75;;;8.00;99.90;;;;;;5007519;28;20442;-78
2022/04/05 07:43:58;;;;;;;6.93;2.70;;;8.00;99.90;;;;;;5005831;28;20077;-76
2022/04/05 07:46:24;;;;;;;5.30;2.60;;;8.00;99.90;;;;;;5006218;28;20481;-77
2022/04/05 07:48:50;;;;;;;6.82;2.95;;;8.00;99.90;;;;;;5006882;28;20050;-77
2022/04/05 07:51:17;;;;;;;8.98;3.03;;;8.00;99.90;;;;;;5005743;28;20477;-76
2022/04/05 07:53:43;;;;;;;8.02;3.17;;;8.00;99.90;;;;;;5012292;28;20076;-74
2022/04/05 07:56:09;;;;;;;5.78;2.70;;;8.10;99.90;;;;;;5011658;28;20037;-75
2022/04/05 07:58:34;;;;;;;9.43;3.00;;;8.10;99.90;;;;;;5007595;28;20072;-74
2022/04/05 08:01:00;;;;;;;8.23;2.80;;;8.10;99.90;;;;;;5007917;28;20421;-75
2022/04/05 08:03:27;;;;;;;9.80;3.05;;;8.20;99.90;;;;;;5005609;28;20050;-75
2022/04/05 08:05:53;;;;;;;9.43;3.10;;;8.20;99.90;;;;;;5004362;28;20050;-75
2022/04/05 08:08:19;;;;;;;6.82;2.80;;;8.30;99.90;;;;;;5018150;28;20412;-76
2022/04/05 08:10:45;;;;;;;7.40;2.50;;;8.30;99.90;;;;;;5016675;28;20742;-76
2022/04/05 08:13:10;;;;;;;8.10;3.03;;;8.30;99.90;;;;;;5006111;28;20120;-78
2022/04/05 08:15:38;;;;;;;5.90;2.90;;;8.30;99.90;;;;;;5006882;28;20038;-77
2022/04/05 08:18:03;;;;;;;7.40;2.92;;;8.30;99.90;;;;;;5004705;28;20042;-77
2022/04/05 08:20:33;;;;;;;8.82;3.08;;;8.40;99.90;;;;;;5006802;28;20079;-76
2022/04/05 08:22:59;;;;;;;5.97;2.67;;;8.40;99.90;;;;;;4989403;28;20045;-77
2022/04/05 08:25:24;;;;;;;6.18;2.60;;;8.50;99.90;;;;;;5006970;28;20037;-75
2022/04/05 08:27:50;;;;;;;6.22;2.65;;;8.50;99.90;;;;;;5005069;28;20455;-77
2022/04/05 08:30:17;;;;;;;9.52;2.92;;;8.50;99.90;;;;;;5005048;28;20052;-78
2022/04/05 08:32:45;;;;;;;5.70;2.42;;;8.50;99.90;;;;;;5006618;28;20095;-76
2022/04/05 08:35:13;;;;;;;5.40;2.30;;;8.50;99.90;;;;;;5005067;28;20121;-77
2022/04/05 08:37:40;;;;;;;5.00;2.15;;;8.50;99.90;;;;;;5005290;28;20065;-75
2022/04/05 08:40:07;;;;;;;6.03;2.10;;;8.60;99.90;;;;;;5005340;28;20160;-75
2022/04/05 08:42:34;;;;;;;5.85;2.30;;;8.60;99.90;;;;;;5007442;28;20050;-75
2022/04/05 08:45:04;;;;;;;7.07;2.28;;;8.60;99.90;;;;;;5005552;28;20398;-74
2022/04/05 08:47:30;;;;;;;7.28;2.15;;;8.60;99.90;;;;;;5004094;28;20574;-74
2022/04/05 08:49:57;;;;;;;6.47;2.28;;;8.60;99.90;;;;;;5017170;28;20140;-72
2022/04/05 08:52:23;;;;;;;4.45;2.00;;;8.70;99.90;;;;;;5020647;28;20052;-74
2022/04/05 08:54:49;;;;;;;4.30;2.00;;;8.70;99.90;;;;;;5009780;28;20485;-74
2022/04/05 08:57:15;;;;;;;4.57;2.25;;;8.80;99.90;;;;;;5008724;28;20106;-75
2022/04/05 08:59:40;;;;;;;3.88;1.85;;;8.90;99.90;;;;;;5011386;28;20077;-74
2022/04/05 09:02:07;;;;;;;5.53;2.10;;;8.90;99.90;;;;;;5008131;28;20154;-74
2022/04/05 09:04:35;;;;;;;4.82;2.03;;;9.00;99.90;;;;;;5009177;28;20034;-77
2022/04/05 09:07:33;;;;;;;5.85;1.90;;;8.90;99.90;;;;;;5016146;28;20041;-75
2022/04/05 09:10:16;;;;;;;3.38;1.70;;;9.00;99.90;;;;;;5004570;28;20042;-77
2022/04/05 09:12:51;;;;;;;7.10;2.33;;;8.90;99.90;;;;;;5107859;27;20046;-77
2022/04/05 09:15:17;;;;;;;3.75;1.75;;;8.90;99.90;;;;;;5011853;28;20038;-77
2022/04/05 09:17:44;;;;;;;3.90;1.70;;;8.80;99.90;;;;;;5009643;28;20168;-77
2022/04/05 09:20:12;;;;;;;3.90;2.00;;;8.80;99.90;;;;;;5008802;28;20038;-76
2022/04/05 09:22:37;;;;;;;3.88;1.90;;;8.80;99.90;;;;;;5008057;28;20071;-77
2022/04/05 09:25:06;;;;;;;4.47;1.88;;;8.80;99.90;;;;;;5008551;28;20128;-76
2022/04/05 09:27:55;;;;;;;5.20;1.90;;;8.80;99.90;;;;;;4992888;28;20065;-76
2022/04/05 09:30:29;;;;;;;3.78;1.67;;;8.70;99.90;;;;;;5005945;28;20557;-74
2022/04/05 09:32:59;;;;;;;2.20;1.50;;;8.80;99.90;;;;;;5018066;28;20058;-77
2022/04/05 09:35:30;;;;;;;2.78;1.83;;;8.80;99.90;;;;;;5017894;28;20465;-73
2022/04/05 09:38:15;;;;;;;3.17;1.73;;;8.80;99.90;;;;;;5006945;28;20089;-73
2022/04/05 09:40:42;;;;;;;2.45;1.50;;;8.80;99.90;;;;;;5000473;28;20122;-73
2022/04/05 09:43:09;;;;;;;2.95;1.50;;;8.80;99.90;;;;;;5007078;28;20049;-74
2022/04/05 09:45:52;;;;;;;2.40;1.40;;;8.80;99.90;;;;;;5007380;28;20068;-73
2022/04/05 09:48:22;;;;;;;1.30;1.20;;;8.80;99.90;;;;;;5008300;28;20484;-71
2022/04/05 09:51:06;;;;;;;1.40;1.08;;;8.90;99.90;;;;;;5008148;28;20088;-73
2022/04/05 09:53:50;;;;;;;1.50;1.10;;;9.00;99.90;;;;;;5006582;28;20042;-72
2022/04/05 09:56:20;;;;;;;3.10;1.25;;;9.00;99.90;;;;;;5006616;28;20061;-75
2022/04/05 09:58:50;;;;;;;1.20;1.10;;;8.90;99.90;;;;;;5011901;28;20091;-75
2022/04/05 10:01:17;;;;;;;3.15;2.30;;;9.00;99.90;;;;;;5005965;28;20667;-76
2022/04/05 10:04:04;;;;;;;2.88;2.10;;;9.00;99.90;;;;;;4999752;28;20628;-74
2022/04/05 10:06:31;;;;;;;2.70;2.50;;;9.10;99.90;;;;;;5107940;27;20054;-73
2022/04/05 10:08:58;;;;;;;3.15;2.85;;;9.10;99.90;;;;;;5007592;28;20125;-74
2022/04/05 10:11:26;;;;;;;3.25;2.92;;;9.20;99.90;;;;;;5006064;28;20062;-74
2022/04/05 10:13:53;;;;;;;3.20;2.90;;;9.20;99.90;;;;;;5007947;28;20037;-74
2022/04/05 10:16:22;;;;;;;3.50;3.13;;;9.20;99.90;;;;;;5006991;28;20030;-77
2022/04/05 10:18:48;;;;;;;5.35;3.67;;;9.20;99.90;;;;;;5005482;28;20058;-74
2022/04/05 10:21:15;;;;;;;5.07;3.90;;;9.20;99.90;;;;;;5007777;28;20037;-75
2022/04/05 10:23:43;;;;;;;4.00;3.50;;;9.30;99.90;;;;;;5005645;28;20502;-74
2022/04/05 10:26:15;;;;;;;5.80;4.47;;;9.30;99.90;;;;;;5025340;28;20077;-75
2022/04/05 10:28:44;;;;;;;5.15;4.60;;;9.30;99.90;;;;;;5018176;28;20548;-75
2022/04/05 10:31:31;;;;;;;5.65;4.97;;;9.40;99.90;;;;;;5005831;28;20042;-76
2022/04/05 10:34:20;;;;;;;5.88;4.60;;;9.30;99.90;;;;;;5006362;28;20048;-73
2022/04/05 10:37:05;;;;;;;4.53;3.83;;;9.40;99.90;;;;;;5006067;28;20088;-75
2022/04/05 10:39:31;;;;;;;5.00;4.15;;;9.40;99.90;;;;;;5007633;28;20046;-77
2022/04/05 10:42:08;;;;;;;4.95;4.10;;;9.50;99.90;;;;;;5007840;28;20703;-76
2022/04/05 10:44:36;;;;;;;4.97;4.40;;;9.50;99.90;;;;;;5005855;28;20138;-77
2022/04/05 10:47:04;;;;;;;5.22;4.45;;;9.50;99.90;;;;;;5004353;28;20061;-73
2022/04/05 10:49:44;;;;;;;6.45;5.13;;;9.50;99.90;;;;;;5005734;28;20095;-76
2022/04/05 10:52:27;;;;;;;5.75;4.68;;;9.50;99.90;;;;;;5002784;28;20095;-80
2022/04/05 10:55:04;;;;;;;6.28;5.20;;;9.50;99.90;;;;;;5006695;28;20042;-83
2022/04/05 10:57:37;;;;;;;6.75;5.63;;;9.60;99.90;;;;;;5007202;28;20061;-78
2022/04/05 11:00:07;;;;;;;7.70;6.45;;;9.50;99.90;;;;;;5007139;28;20065;-77
2022/04/05 11:02:47;;;;;;;8.48;6.75;;;9.60;99.90;;;;;;5061276;28;20042;-78
2022/04/05 11:05:18;;;;;;;8.75;7.30;;;9.70;99.90;;;;;;5005851;28;20045;-75
2022/04/05 11:08:09;;;;;;;9.63;7.80;;;9.70;99.90;;;;;;5006699;28;20049;-75
2022/04/05 11:10:37;;;;;;;9.80;7.70;;;9.80;99.90;;;;;;5004868;28;20046;-74
2022/04/05 11:13:09;;;;;;;10.13;8.38;;;9.80;99.90;;;;;;5006431;28;20545;-74
2022/04/05 11:16:10;;;;;;;9.85;8.85;;;9.80;99.90;;;;;;5006435;28;20037;-77
2022/04/05 11:18:38;;;;;;;10.02;8.73;;;9.90;99.90;;;;;;5002524;28;20056;-73
2022/04/05 11:21:08;;;;;;;10.88;9.38;;;9.90;99.90;;;;;;5007875;28;20033;-75
2022/04/05 11:23:47;;;;;;;10.55;9.05;;;10.00;99.90;;;;;;5006407;28;20053;-76
2022/04/05 11:26:35;;;;;;;11.70;9.43;;;10.10;99.90;;;;;;4998873;28;20046;-76
2022/04/05 11:29:03;;;;;;;11.60;9.40;;;10.20;99.90;;;;;;5002252;28;20091;-76
2022/04/05 11:31:39;;;;;;;10.80;9.70;;;10.20;99.90;;;;;;5006058;28;20034;-73
2022/04/05 11:34:36;;;;;;;11.05;9.35;;;10.30;99.90;;;;;;5005318;28;20481;-73
2022/04/05 11:37:03;;;;;;;11.20;8.70;;;10.40;99.90;;;;;;5003740;28;20439;-73
2022/04/05 11:39:29;;;;;;;8.40;7.28;;;10.50;99.90;;;;;;5006828;28;20485;-73
2022/04/05 11:42:01;;;;;;;8.65;7.15;;;10.50;99.90;;;;;;5006771;28;20046;-73
2022/04/05 11:44:27;;;;;;;7.97;7.15;;;10.60;99.90;;;;;;5004993;28;20045;-73
2022/04/05 11:46:56;;;;;;;7.75;6.25;;;10.60;99.90;;;;;;5004917;28;20049;-73
2022/04/05 11:49:22;;;;;;;8.55;6.45;;;10.70;99.90;;;;;;5005406;28;20141;-73
2022/04/05 11:51:49;;;;;;;8.68;6.93;;;10.70;99.90;;;;;;5006261;28;20129;-73
2022/04/05 11:54:22;;;;;;;6.30;5.35;;;10.70;99.90;;;;;;5004326;28;20576;-73
2022/04/05 11:56:48;;;;;;;6.88;5.85;;;10.70;99.90;;;;;;4985759;28;20392;-73
2022/04/05 11:59:15;;;;;;;7.50;6.18;;;10.70;99.90;;;;;;5087237;28;20134;-73
2022/04/05 12:01:42;;;;;;;;;;;10.70;99.90;;;;;;4990369;28;20100;-72
2022/04/05 12:04:10;;;;;;;6.90;5.93;;;10.70;99.90;;;;;;5003936;28;19921;-73
2022/04/05 12:06:44;;;;;;;6.10;5.15;;;10.80;99.90;;;;;;5006505;28;20037;-73
2022/04/05 12:09:11;;;;;;;6.68;5.57;;;10.80;99.90;;;;;;5005576;28;20516;-73
2022/04/05 12:11:38;;;;;;;;;;;10.90;99.90;;;;;;5005375;28;20073;-73
2022/04/05 12:14:05;;;;;;;;;;;10.90;99.90;;;;;;5005195;28;20354;-73
2022/04/05 12:16:48;;;;;;;7.13;5.60;;;10.80;99.90;;;;;;5006602;28;19921;-73
2022/04/05 12:19:29;;;;;;;6.28;5.10;;;10.90;99.90;;;;;;5003697;28;20284;-73
2022/04/05 12:22:02;;;;;;;6.60;4.57;;;10.90;99.90;;;;;;5005310;28;20595;-73
2022/04/05 12:24:29;;;;;;;6.68;5.60;;;10.80;99.90;;;;;;5004186;28;20111;-73
2022/04/05 12:26:57;;;;;;;5.90;5.03;;;10.80;99.90;;;;;;5003922;28;20121;-73
2022/04/05 12:29:27;;;;;;;6.70;5.40;;;10.90;99.90;;;;;;5004019;28;20053;-73
2022/04/05 12:31:53;;;;;;;7.03;5.57;;;10.90;99.90;;;;;;5006560;28;20036;-75
2022/04/05 12:34:20;;;;;;;10.65;5.93;;;11.00;99.90;;;;;;5004549;28;20386;-76
2022/04/05 12:36:57;;;;;;;7.43;5.80;;;11.00;99.90;;;;;;5000769;28;20066;-75
2022/04/05 12:39:31;;;;;;;8.60;5.72;;;11.00;99.90;;;;;;5001395;28;20408;-78
2022/04/05 12:42:01;;;;;;;9.13;5.97;;;11.00;99.90;;;;;;5006296;28;20098;-78
2022/04/05 12:44:32;;;;;;;8.30;5.85;;;10.90;99.90;;;;;;5004960;28;20053;-76
2022/04/05 12:47:32;;;;;;;6.82;5.70;;;10.90;99.90;;;;;;5005090;28;20433;-76
2022/04/05 12:50:01;;;;;;;7.05;5.90;;;10.90;99.90;;;;;;5019540;28;20062;-76
2022/04/05 12:52:29;;;;;;;9.82;6.40;;;11.00;99.90;;;;;;4994705;28;20061;-76
2022/04/05 12:55:05;;;;;;;8.77;5.88;;;11.00;99.90;;;;;;5003521;28;20489;-76
2022/04/05 12:57:35;;;;;;;8.05;5.47;;;11.10;99.90;;;;;;5006267;28;20652;-75
2022/04/05 13:00:13;;;;;;;7.18;5.30;;;11.10;99.90;;;;;;5004467;28;20069;-75
2022/04/05 13:02:42;;;;;;;7.78;4.40;;;11.10;99.90;;;;;;5005102;28;20050;-74
2022/04/05 13:08:00;;;;;;;7.53;4.60;;;11.10;99.90;;;;;;5006912;28;20046;-74